Cape Town, South Africa
Current Conditions -  °F | °C
As of 11:00 AM on Friday 19 Dec 2014 (Local Time) from FACT Reporting Station
Few Clouds Few Clouds  
Wind Chill: 73°   Ceiling: Unl
Heat Index: 73°   Visibility: 6mi
Dew Point: 54°   Wind: 8mph
Humidity: 50%   Direction: 180°S
Pressure: 30"   Gusts: NA
Location:  33.93°S, 18.46°E
Report Text: FACT 190900Z 18007KT 120V230 9999 FEW040 23/12 Q1016 NOSIG
Loading
Personal Weather Stations






























Interactive Weather Map New forecast layout! Learn more

10-Day Weather Forecast

Advertisements
Track Severe Weather on mobile